Time;durP1;ratioP1;P1;durP2;ratioP2;P2;SDS_P1;SDS_P2;PMS_P1;PMS_P2;Temp;Humidity;BMP_temperature;BMP_pressure;BME280_temperature;BME280_humidity;BME280_pressure;Samples;Min_cycle;Max_cycle;Signal;HPM_P1;HPM_P2
2021/08/11 00:01:30;;;;;;;7.10;6.40;;;16.70;90.50;;;;;;5065054;28;20032;-76
2021/08/11 00:03:55;;;;;;;11.20;8.00;;;16.70;90.60;;;;;;5035595;28;20044;-76
2021/08/11 00:06:21;;;;;;;8.52;7.45;;;16.70;90.60;;;;;;5050813;28;20025;-75
2021/08/11 00:08:47;;;;;;;9.50;7.22;;;16.60;90.70;;;;;;5050031;28;20048;-76
2021/08/11 00:11:14;;;;;;;8.77;7.00;;;16.60;90.70;;;;;;5054230;28;20035;-76
2021/08/11 00:13:40;;;;;;;8.38;7.15;;;16.60;90.70;;;;;;5053501;28;20041;-76
2021/08/11 00:16:06;;;;;;;9.35;7.05;;;16.60;90.70;;;;;;5054530;28;20021;-76
2021/08/11 00:18:31;;;;;;;8.38;6.38;;;16.60;90.70;;;;;;5054482;28;20482;-76
2021/08/11 00:20:57;;;;;;;9.32;7.15;;;16.60;90.70;;;;;;5036347;28;20033;-76
2021/08/11 00:23:25;;;;;;;10.50;7.03;;;16.60;90.70;;;;;;5054262;28;20393;-76
2021/08/11 00:25:53;;;;;;;10.77;7.22;;;16.60;90.70;;;;;;5033971;28;20037;-75
2021/08/11 00:28:23;;;;;;;;;;;16.60;90.70;;;;;;5053542;28;20041;-75
2021/08/11 00:30:49;;;;;;;6.55;5.45;;;16.50;90.60;;;;;;5054144;28;20435;-76
2021/08/11 00:33:14;;;;;;;6.65;5.88;;;16.50;90.70;;;;;;5032349;28;20033;-76
2021/08/11 00:35:40;;;;;;;8.93;6.22;;;16.50;90.70;;;;;;5036801;28;20107;-76
2021/08/11 00:38:06;;;;;;;7.07;5.93;;;16.50;90.60;;;;;;5054331;28;20108;-76
2021/08/11 00:40:32;;;;;;;9.32;6.40;;;16.50;90.60;;;;;;5054416;28;20096;-76
2021/08/11 00:42:58;;;;;;;10.20;6.43;;;16.50;90.70;;;;;;5053024;28;20033;-76
2021/08/11 00:45:24;;;;;;;9.45;6.80;;;16.40;90.60;;;;;;5054322;28;20039;-75
2021/08/11 00:47:51;;;;;;;8.43;6.18;;;16.40;90.70;;;;;;5054019;28;20397;-75
2021/08/11 00:50:18;;;;;;;8.98;6.85;;;16.40;90.70;;;;;;5034256;28;20040;-76
2021/08/11 00:52:43;;;;;;;10.57;6.95;;;16.40;90.70;;;;;;5054233;28;20055;-76
2021/08/11 00:55:10;;;;;;;10.85;8.07;;;16.40;90.70;;;;;;5035607;28;20029;-76
2021/08/11 00:57:39;;;;;;;9.82;7.60;;;16.40;90.70;;;;;;5054098;28;20033;-76
2021/08/11 01:00:05;;;;;;;9.52;7.15;;;16.30;90.70;;;;;;5054046;28;20025;-75
2021/08/11 01:02:33;;;;;;;10.70;7.93;;;16.40;90.80;;;;;;5048962;28;20036;-75
2021/08/11 01:05:00;;;;;;;10.03;7.70;;;16.30;90.80;;;;;;5052604;28;20024;-76
2021/08/11 01:07:29;;;;;;;10.50;8.05;;;16.30;90.80;;;;;;5050404;28;20274;-76
2021/08/11 01:09:55;;;;;;;11.25;8.57;;;16.30;90.90;;;;;;5052650;28;20059;-76
2021/08/11 01:12:24;;;;;;;8.57;7.70;;;16.30;91.00;;;;;;5035844;28;20074;-77
2021/08/11 01:14:54;;;;;;;12.10;9.43;;;16.30;91.10;;;;;;5055973;28;20678;-76
2021/08/11 01:17:28;;;;;;;14.00;9.02;;;16.30;91.10;;;;;;5055615;28;20025;-76
2021/08/11 01:19:56;;;;;;;12.25;9.50;;;16.30;91.20;;;;;;5054963;28;20052;-75
2021/08/11 01:22:43;;;;;;;12.73;8.80;;;16.30;91.20;;;;;;5037122;28;20025;-75
2021/08/11 01:25:31;;;;;;;9.85;7.95;;;16.30;91.20;;;;;;5054685;28;20039;-75
2021/08/11 01:28:15;;;;;;;8.07;7.28;;;16.30;91.20;;;;;;5052412;28;20023;-75
2021/08/11 01:30:49;;;;;;;9.40;7.30;;;16.30;91.20;;;;;;5070516;28;20055;-75
2021/08/11 01:33:36;;;;;;;10.57;7.70;;;16.30;91.20;;;;;;5072760;28;20097;-75
2021/08/11 01:36:34;;;;;;;30.52;9.90;;;16.20;91.20;;;;;;5072726;28;20032;-75
2021/08/11 01:39:02;;;;;;;47.42;10.80;;;16.20;91.20;;;;;;5054573;28;20714;-75
2021/08/11 01:41:33;;;;;;;21.05;12.68;;;16.20;91.30;;;;;;5053438;28;20029;-75
2021/08/11 01:43:59;;;;;;;12.43;9.05;;;16.20;91.30;;;;;;5055513;28;20021;-75
2021/08/11 01:46:27;;;;;;;11.18;8.95;;;16.20;91.60;;;;;;5035757;28;20039;-75
2021/08/11 01:48:55;;;;;;;14.50;9.65;;;16.20;91.40;;;;;;5055168;28;20346;-75
2021/08/11 01:51:22;;;;;;;12.45;9.82;;;16.20;91.30;;;;;;5054768;28;20079;-75
2021/08/11 01:53:49;;;;;;;13.60;9.15;;;16.20;91.30;;;;;;5073324;28;20435;-75
2021/08/11 01:56:16;;;;;;;13.38;9.60;;;16.20;91.20;;;;;;5055309;28;20043;-75
2021/08/11 01:58:42;;;;;;;13.05;9.88;;;16.10;91.20;;;;;;5020602;28;20410;-76
2021/08/11 02:01:09;;;;;;;16.63;9.95;;;16.10;91.20;;;;;;5054581;28;20068;-75
2021/08/11 02:03:36;;;;;;;17.58;10.73;;;16.10;91.20;;;;;;5055040;28;20159;-76
2021/08/11 02:06:02;;;;;;;14.27;9.32;;;16.10;91.20;;;;;;5072890;28;20020;-75
2021/08/11 02:08:29;;;;;;;24.10;10.68;;;16.10;91.20;;;;;;5072408;28;20409;-75
2021/08/11 02:10:57;;;;;;;22.40;11.93;;;16.10;91.30;;;;;;5054248;28;20044;-75
2021/08/11 02:13:23;;;;;;;17.10;12.45;;;16.10;91.30;;;;;;5072051;28;20040;-75
2021/08/11 02:15:49;;;;;;;16.67;11.52;;;16.10;91.30;;;;;;5072516;28;20028;-75
2021/08/11 02:18:15;;;;;;;37.80;12.63;;;16.10;91.40;;;;;;5064006;28;20033;-75
2021/08/11 02:20:42;;;;;;;24.80;13.27;;;16.00;91.40;;;;;;5072401;28;20481;-75
2021/08/11 02:23:09;;;;;;;31.35;12.25;;;16.00;91.40;;;;;;5054277;28;20044;-75
2021/08/11 02:25:36;;;;;;;57.75;14.23;;;16.00;91.40;;;;;;5054553;28;20508;-75
2021/08/11 02:28:13;;;;;;;64.38;13.70;;;16.00;91.40;;;;;;5053951;28;20028;-75
2021/08/11 02:31:00;;;;;;;60.40;12.73;;;16.00;91.50;;;;;;5070914;28;20036;-76
2021/08/11 02:33:32;;;;;;;49.03;9.73;;;16.00;91.60;;;;;;5070937;28;20032;-75
2021/08/11 02:36:03;;;;;;;41.85;8.90;;;16.00;91.60;;;;;;5051962;28;20028;-75
2021/08/11 02:38:34;;;;;;;40.72;8.80;;;15.90;91.60;;;;;;5071996;28;20397;-76
2021/08/11 02:41:28;;;;;;;27.50;8.38;;;16.00;91.70;;;;;;5069031;28;20016;-76
2021/08/11 02:44:07;;;;;;;22.00;7.00;;;16.00;91.60;;;;;;5062466;28;20043;-75
2021/08/11 02:46:39;;;;;;;27.50;6.90;;;15.90;91.60;;;;;;5052627;28;20028;-75
2021/08/11 02:49:08;;;;;;;61.70;7.45;;;15.90;91.60;;;;;;5071209;28;20024;-75
2021/08/11 02:51:36;;;;;;;58.75;6.13;;;15.90;91.50;;;;;;5052065;28;20039;-75
2021/08/11 02:54:08;;;;;;;27.60;5.07;;;15.90;91.50;;;;;;5036891;28;20517;-75
2021/08/11 02:56:34;;;;;;;39.92;6.05;;;15.90;91.80;;;;;;5071506;28;20037;-76
2021/08/11 02:59:01;;;;;;;25.00;5.65;;;15.90;91.60;;;;;;5053167;28;20051;-76
2021/08/11 03:01:30;;;;;;;23.13;4.75;;;15.90;91.50;;;;;;5053290;28;20097;-76
2021/08/11 03:03:59;;;;;;;30.33;5.47;;;15.80;91.60;;;;;;5069827;28;20115;-75
2021/08/11 03:06:25;;;;;;;38.13;5.97;;;15.90;91.60;;;;;;5036680;28;20040;-75
2021/08/11 03:08:51;;;;;;;37.33;5.22;;;15.80;91.60;;;;;;5077374;28;20032;-75
2021/08/11 03:11:19;;;;;;;33.22;5.72;;;15.80;91.70;;;;;;5077898;28;20028;-75
2021/08/11 03:13:45;;;;;;;29.55;4.68;;;15.80;91.70;;;;;;5058876;28;20050;-75
2021/08/11 03:16:12;;;;;;;26.30;5.50;;;15.80;91.70;;;;;;5070957;28;20035;-75
2021/08/11 03:18:38;;;;;;;10.65;4.35;;;15.80;92.00;;;;;;5052685;28;20824;-75
2021/08/11 03:21:05;;;;;;;34.88;5.90;;;15.80;91.70;;;;;;5052971;28;20139;-76
2021/08/11 03:23:31;;;;;;;12.98;4.93;;;15.80;91.70;;;;;;5071242;28;20040;-76
2021/08/11 03:25:56;;;;;;;17.48;4.93;;;15.80;91.60;;;;;;5070720;28;20033;-75
2021/08/11 03:28:22;;;;;;;26.90;5.72;;;15.80;91.70;;;;;;5035994;28;20537;-75
2021/08/11 03:30:48;;;;;;;42.08;5.10;;;15.70;91.70;;;;;;5036330;28;20502;-75
2021/08/11 03:33:14;;;;;;;55.10;4.75;;;15.70;91.70;;;;;;5053001;28;20037;-75
2021/08/11 03:35:40;;;;;;;54.85;5.40;;;15.80;91.90;;;;;;5052902;28;20028;-75
2021/08/11 03:38:06;;;;;;;28.13;4.03;;;15.70;91.80;;;;;;5052202;28;20028;-75
2021/08/11 03:40:31;;;;;;;11.82;4.75;;;15.70;91.90;;;;;;5049936;28;20420;-76
2021/08/11 03:42:57;;;;;;;12.43;4.57;;;15.70;91.80;;;;;;5016866;28;20036;-75
2021/08/11 03:45:23;;;;;;;11.38;4.30;;;15.70;91.70;;;;;;5051874;28;20370;-75
2021/08/11 03:47:49;;;;;;;17.20;4.82;;;15.60;91.70;;;;;;5043405;28;20515;-75
2021/08/11 03:50:16;;;;;;;5.03;4.50;;;15.60;91.70;;;;;;5052578;28;20119;-76
2021/08/11 03:52:42;;;;;;;16.52;4.70;;;15.60;91.80;;;;;;5071467;28;20025;-75
2021/08/11 03:55:10;;;;;;;10.57;4.40;;;15.60;91.60;;;;;;5052693;28;20410;-75
2021/08/11 03:57:36;;;;;;;11.63;4.53;;;15.50;91.60;;;;;;5070470;28;20063;-76
2021/08/11 04:00:02;;;;;;;26.30;4.93;;;15.50;91.60;;;;;;5052647;28;20473;-76
2021/08/11 04:02:28;;;;;;;22.45;4.95;;;15.50;91.60;;;;;;5071009;28;20021;-77
2021/08/11 04:04:54;;;;;;;44.85;5.82;;;15.50;91.60;;;;;;5052909;28;20127;-75
2021/08/11 04:07:19;;;;;;;79.05;6.57;;;15.50;91.70;;;;;;5035957;28;20070;-75
2021/08/11 04:09:45;;;;;;;48.53;5.55;;;15.50;91.70;;;;;;5051947;28;20039;-76
2021/08/11 04:12:10;;;;;;;17.50;5.20;;;15.50;91.80;;;;;;5034276;28;20091;-75
2021/08/11 04:14:36;;;;;;;11.77;5.55;;;15.50;91.90;;;;;;5051651;28;20136;-75
2021/08/11 04:17:02;;;;;;;34.97;5.93;;;15.50;91.90;;;;;;5052261;28;20459;-76
2021/08/11 04:19:27;;;;;;;63.33;6.55;;;15.50;91.90;;;;;;5051670;28;20112;-76
2021/08/11 04:21:53;;;;;;;24.80;5.10;;;15.50;91.90;;;;;;5070117;28;20060;-75
2021/08/11 04:24:19;;;;;;;28.83;5.85;;;15.50;92.00;;;;;;5051837;28;20037;-76
2021/08/11 04:26:44;;;;;;;20.52;6.03;;;15.50;92.00;;;;;;5035450;28;20132;-75
2021/08/11 04:29:10;;;;;;;28.95;5.95;;;15.50;91.90;;;;;;5035374;28;20163;-75
2021/08/11 04:31:35;;;;;;;12.68;5.00;;;15.50;91.90;;;;;;5052102;28;20127;-75
2021/08/11 04:34:01;;;;;;;8.98;5.43;;;15.60;92.00;;;;;;5069527;28;20036;-76
2021/08/11 04:36:27;;;;;;;14.40;6.15;;;15.60;91.90;;;;;;5018452;28;20033;-76
2021/08/11 04:38:53;;;;;;;6.03;5.40;;;15.60;91.90;;;;;;5051743;28;20469;-76
2021/08/11 04:41:19;;;;;;;14.15;6.40;;;15.60;91.90;;;;;;5069831;28;20147;-75
2021/08/11 04:43:45;;;;;;;13.65;6.53;;;15.60;91.90;;;;;;5018553;28;20120;-75
2021/08/11 04:46:11;;;;;;;18.25;6.93;;;15.60;91.90;;;;;;5052105;28;20489;-75
2021/08/11 04:48:36;;;;;;;24.67;7.75;;;15.60;91.90;;;;;;5051251;28;20089;-75
2021/08/11 04:51:03;;;;;;;15.90;5.82;;;15.60;92.00;;;;;;5069722;28;20035;-75
2021/08/11 04:53:29;;;;;;;15.60;6.05;;;15.60;92.00;;;;;;5051566;28;20040;-75
2021/08/11 04:55:54;;;;;;;22.48;7.55;;;15.70;92.00;;;;;;5054739;28;20024;-75
2021/08/11 04:58:20;;;;;;;9.63;7.00;;;15.70;92.00;;;;;;5056237;28;20043;-75
2021/08/11 05:00:45;;;;;;;34.50;7.80;;;15.70;92.00;;;;;;5037151;28;20025;-75
2021/08/11 05:03:12;;;;;;;36.50;8.93;;;15.70;92.00;;;;;;5056578;28;20036;-75
2021/08/11 05:05:41;;;;;;;16.73;7.07;;;15.80;92.10;;;;;;5038323;28;20052;-76
2021/08/11 05:08:07;;;;;;;58.53;8.30;;;15.80;92.10;;;;;;5055863;28;20044;-75
2021/08/11 05:10:34;;;;;;;16.10;7.50;;;15.90;92.10;;;;;;5038099;28;20047;-75
2021/08/11 05:13:00;;;;;;;13.63;6.32;;;15.90;92.10;;;;;;5073102;28;20040;-75
2021/08/11 05:15:25;;;;;;;26.10;5.90;;;16.00;92.10;;;;;;5073622;28;20027;-75
2021/08/11 05:17:51;;;;;;;34.55;7.00;;;16.10;92.10;;;;;;5073642;28;20099;-75
2021/08/11 05:20:19;;;;;;;26.30;6.65;;;16.10;92.00;;;;;;5021476;28;20067;-75
2021/08/11 05:22:45;;;;;;;58.60;8.60;;;16.20;92.00;;;;;;5055332;28;20025;-75
2021/08/11 05:25:11;;;;;;;14.50;6.78;;;16.20;92.00;;;;;;5054909;28;20520;-75
2021/08/11 05:27:36;;;;;;;53.00;8.00;;;16.20;92.00;;;;;;5036220;28;20033;-76
2021/08/11 05:30:10;;;;;;;32.65;7.97;;;16.20;92.10;;;;;;5038809;28;20040;-75
2021/08/11 05:32:36;;;;;;;18.88;6.70;;;16.20;92.20;;;;;;5051096;28;20495;-75
2021/08/11 05:35:02;;;;;;;17.63;7.97;;;16.20;92.20;;;;;;5054902;28;20115;-76
2021/08/11 05:37:28;;;;;;;8.73;7.20;;;16.30;92.30;;;;;;5038246;28;20489;-75
2021/08/11 05:39:54;;;;;;;16.73;7.93;;;16.30;92.30;;;;;;5038032;28;20035;-76
2021/08/11 05:42:19;;;;;;;34.42;9.60;;;16.40;92.30;;;;;;5038934;28;20028;-76
2021/08/11 05:44:45;;;;;;;26.60;9.30;;;16.40;92.30;;;;;;5038374;28;20034;-75
2021/08/11 05:47:11;;;;;;;17.77;8.75;;;16.50;92.30;;;;;;5073305;28;20546;-75
2021/08/11 05:49:37;;;;;;;11.70;7.32;;;16.50;92.30;;;;;;5072837;28;20033;-76
2021/08/11 05:52:06;;;;;;;14.75;8.80;;;16.60;92.40;;;;;;5055418;28;20093;-76
2021/08/11 05:54:34;;;;;;;28.08;8.85;;;16.60;92.40;;;;;;5059422;28;20045;-75
2021/08/11 05:56:59;;;;;;;13.38;7.82;;;16.70;92.40;;;;;;5072800;28;20111;-76
2021/08/11 05:59:25;;;;;;;12.25;9.18;;;16.70;92.30;;;;;;5054975;28;20394;-76
2021/08/11 06:01:51;;;;;;;7.43;6.78;;;16.80;92.30;;;;;;5055095;28;20036;-75
2021/08/11 06:04:17;;;;;;;7.13;6.45;;;16.90;92.30;;;;;;5054389;28;20076;-76
2021/08/11 06:06:43;;;;;;;8.98;7.25;;;16.90;92.20;;;;;;5053686;28;20036;-75
2021/08/11 06:09:08;;;;;;;8.63;7.93;;;17.00;92.10;;;;;;5071857;28;20032;-75
2021/08/11 06:11:34;;;;;;;8.57;7.78;;;17.00;92.20;;;;;;5054339;28;20520;-75
2021/08/11 06:13:59;;;;;;;8.30;7.25;;;17.00;92.30;;;;;;5039033;28;20409;-76
2021/08/11 06:16:25;;;;;;;10.20;9.20;;;17.00;92.30;;;;;;5055637;28;20024;-76
2021/08/11 06:18:54;;;;;;;8.77;7.50;;;17.10;92.30;;;;;;5055709;28;20025;-76
2021/08/11 06:21:20;;;;;;;13.07;8.48;;;17.20;92.40;;;;;;5035091;28;20162;-76
2021/08/11 06:23:46;;;;;;;10.80;9.70;;;17.20;92.30;;;;;;5055112;28;20545;-76
2021/08/11 06:26:11;;;;;;;11.55;10.18;;;17.30;92.40;;;;;;5054076;28;20028;-76
2021/08/11 06:28:37;;;;;;;8.77;7.63;;;17.40;92.30;;;;;;5073089;28;20374;-76
2021/08/11 06:31:02;;;;;;;11.68;8.98;;;17.40;92.30;;;;;;5055428;28;20056;-76
2021/08/11 06:33:28;;;;;;;23.88;11.32;;;17.50;92.30;;;;;;5054944;28;20086;-76
2021/08/11 06:35:54;;;;;;;13.40;10.48;;;17.60;92.20;;;;;;5055310;28;20550;-75
2021/08/11 06:38:19;;;;;;;12.07;10.68;;;17.70;92.20;;;;;;5072669;28;20091;-75
2021/08/11 06:40:45;;;;;;;14.07;11.52;;;17.80;92.20;;;;;;5072624;28;20025;-75
2021/08/11 06:43:10;;;;;;;14.73;11.88;;;17.90;92.20;;;;;;5031303;28;20086;-75
2021/08/11 06:45:36;;;;;;;13.80;12.20;;;18.00;92.00;;;;;;5053939;28;20032;-75
2021/08/11 06:48:02;;;;;;;13.85;12.35;;;18.10;92.00;;;;;;5072347;28;20040;-76
2021/08/11 06:50:28;;;;;;;14.50;12.20;;;18.10;92.00;;;;;;5054673;28;20111;-75
2021/08/11 06:52:54;;;;;;;15.70;12.02;;;18.20;92.00;;;;;;5072852;28;20059;-76
2021/08/11 06:55:19;;;;;;;15.85;11.00;;;18.20;91.90;;;;;;5057609;28;20060;-75
2021/08/11 06:57:47;;;;;;;16.30;13.10;;;18.20;91.80;;;;;;5071964;28;20082;-75
2021/08/11 07:00:13;;;;;;;12.80;11.40;;;18.30;91.80;;;;;;5072711;28;20100;-75
2021/08/11 07:02:39;;;;;;;15.32;12.02;;;18.30;91.90;;;;;;5033458;28;20120;-75
2021/08/11 07:05:06;;;;;;;14.02;12.40;;;18.30;91.90;;;;;;5059980;28;20429;-75
2021/08/11 07:07:31;;;;;;;14.10;12.02;;;18.40;92.00;;;;;;5055032;28;20102;-75
2021/08/11 07:09:58;;;;;;;23.75;20.23;;;18.60;91.80;;;;;;5038420;28;20417;-76
2021/08/11 07:12:24;;;;;;;19.38;16.55;;;18.60;91.90;;;;;;5073036;28;20032;-76
2021/08/11 07:14:49;;;;;;;16.77;14.98;;;18.70;91.60;;;;;;5074534;28;20048;-76
2021/08/11 07:17:16;;;;;;;17.17;15.38;;;18.80;91.40;;;;;;5054428;28;20035;-76
2021/08/11 07:19:41;;;;;;;12.07;9.85;;;19.00;91.20;;;;;;5055568;28;20103;-77
2021/08/11 07:22:09;;;;;;;13.90;11.18;;;19.10;91.00;;;;;;5055747;28;20430;-77
2021/08/11 07:24:35;;;;;;;14.43;11.93;;;19.20;91.10;;;;;;5055791;28;20036;-77
2021/08/11 07:27:01;;;;;;;18.55;13.95;;;19.20;90.70;;;;;;5072492;28;20039;-77
2021/08/11 07:29:26;;;;;;;17.38;15.38;;;19.30;90.80;;;;;;5073551;28;20110;-77
2021/08/11 07:31:52;;;;;;;14.00;12.60;;;19.40;90.70;;;;;;5055343;28;20037;-77
2021/08/11 07:34:18;;;;;;;18.20;16.15;;;19.40;90.60;;;;;;5073559;28;20040;-77
2021/08/11 07:36:44;;;;;;;14.93;13.45;;;19.40;90.60;;;;;;5073286;28;20049;-77
2021/08/11 07:39:09;;;;;;;15.90;14.20;;;19.40;90.70;;;;;;5055253;28;20032;-77
2021/08/11 07:41:35;;;;;;;15.80;14.15;;;19.40;90.60;;;;;;5073331;28;20420;-77
2021/08/11 07:44:01;;;;;;;16.67;14.98;;;19.50;90.50;;;;;;5038803;28;20036;-77
2021/08/11 07:46:26;;;;;;;17.42;15.05;;;19.60;90.50;;;;;;5022137;28;20043;-78
2021/08/11 07:48:53;;;;;;;16.08;14.48;;;19.90;90.40;;;;;;5055268;28;20040;-77
2021/08/11 07:51:18;;;;;;;17.65;14.23;;;20.30;90.10;;;;;;5073255;28;20035;-77
2021/08/11 07:53:44;;;;;;;16.30;14.60;;;20.60;88.90;;;;;;5055653;28;20444;-77
2021/08/11 07:56:09;;;;;;;17.10;15.30;;;20.80;88.20;;;;;;5055216;28;20487;-78
2021/08/11 07:58:35;;;;;;;15.98;13.98;;;21.10;87.70;;;;;;5038676;28;20029;-77
2021/08/11 08:01:01;;;;;;;15.77;14.05;;;21.10;86.90;;;;;;5055399;28;20111;-78
2021/08/11 08:03:26;;;;;;;14.57;13.07;;;21.10;86.90;;;;;;5072178;28;20396;-78
2021/08/11 08:05:52;;;;;;;15.65;12.98;;;21.10;86.80;;;;;;5054613;28;20029;-76
2021/08/11 08:08:18;;;;;;;15.32;13.05;;;21.00;87.40;;;;;;5054625;28;20040;-77
2021/08/11 08:10:43;;;;;;;12.05;10.80;;;20.90;87.60;;;;;;5072640;28;20029;-78
2021/08/11 08:13:09;;;;;;;10.85;9.75;;;20.90;87.60;;;;;;5072669;28;20044;-78
2021/08/11 08:15:35;;;;;;;13.98;10.57;;;20.80;87.50;;;;;;5055350;28;20031;-77
2021/08/11 08:18:00;;;;;;;12.25;10.75;;;20.80;87.80;;;;;;5054273;28;20052;-75
2021/08/11 08:20:26;;;;;;;13.65;11.38;;;20.90;87.90;;;;;;5071277;28;20029;-75
2021/08/11 08:22:52;;;;;;;11.05;9.85;;;20.90;87.80;;;;;;5053949;28;20124;-75
2021/08/11 08:25:22;;;;;;;11.43;9.95;;;20.90;87.60;;;;;;5052814;28;20123;-75
2021/08/11 08:27:52;;;;;;;13.18;10.25;;;21.00;87.40;;;;;;5037969;28;20051;-75
2021/08/11 08:30:18;;;;;;;13.52;9.90;;;21.10;87.00;;;;;;5039537;28;20028;-75
2021/08/11 08:32:45;;;;;;;12.60;11.30;;;21.20;86.60;;;;;;5039322;28;20059;-75
2021/08/11 08:35:11;;;;;;;17.52;11.65;;;21.10;86.20;;;;;;5058232;28;20033;-75
2021/08/11 08:37:38;;;;;;;14.82;11.02;;;21.10;86.40;;;;;;5074869;28;20074;-76
2021/08/11 08:40:12;;;;;;;12.50;10.40;;;21.10;86.70;;;;;;5057240;28;20112;-75
2021/08/11 08:42:39;;;;;;;13.50;11.27;;;21.20;86.40;;;;;;5024824;28;20036;-75
2021/08/11 08:45:06;;;;;;;13.23;11.85;;;21.40;86.00;;;;;;5073819;28;20103;-75
2021/08/11 08:47:32;;;;;;;12.23;10.90;;;21.60;85.40;;;;;;5057339;28;20377;-75
2021/08/11 08:50:00;;;;;;;16.30;11.48;;;21.60;84.70;;;;;;5040906;28;20120;-76
2021/08/11 08:52:27;;;;;;;14.85;11.43;;;21.80;84.40;;;;;;5057210;28;20036;-74
2021/08/11 08:54:57;;;;;;;12.40;10.65;;;21.90;83.90;;;;;;5074299;28;20400;-76
2021/08/11 08:57:23;;;;;;;14.18;12.07;;;22.00;83.60;;;;;;5075545;28;20096;-75
2021/08/11 08:59:49;;;;;;;15.43;11.90;;;21.90;83.50;;;;;;5074750;28;20111;-75
2021/08/11 09:02:15;;;;;;;16.77;12.40;;;21.90;83.70;;;;;;5056766;28;20040;-76
2021/08/11 09:04:41;;;;;;;15.13;12.00;;;21.80;84.20;;;;;;5074252;28;20107;-76
2021/08/11 09:07:18;;;;;;;17.17;13.93;;;21.70;84.70;;;;;;5056642;28;20605;-76
2021/08/11 09:09:45;;;;;;;16.75;13.75;;;21.50;85.00;;;;;;5057444;28;20120;-75
2021/08/11 09:12:18;;;;;;;17.48;13.35;;;21.40;85.20;;;;;;5057035;28;20062;-76
2021/08/11 09:14:46;;;;;;;20.98;14.55;;;21.20;85.40;;;;;;5056979;28;20036;-76
2021/08/11 09:17:31;;;;;;;15.48;13.82;;;21.20;86.10;;;;;;5057172;28;20115;-76
2021/08/11 09:19:56;;;;;;;20.83;17.38;;;21.20;86.40;;;;;;5056745;28;20036;-76
2021/08/11 09:22:22;;;;;;;26.02;20.83;;;21.20;86.50;;;;;;5024304;28;20048;-76
2021/08/11 09:25:01;;;;;;;29.02;19.67;;;21.20;86.80;;;;;;5023751;28;20500;-76
2021/08/11 09:27:27;;;;;;;28.27;20.85;;;21.30;86.50;;;;;;5056173;28;20024;-75
2021/08/11 09:30:08;;;;;;;26.50;18.52;;;21.30;86.50;;;;;;5036765;28;20044;-76
2021/08/11 09:32:55;;;;;;;23.13;18.48;;;21.30;86.20;;;;;;5056900;28;20089;-76
2021/08/11 09:35:26;;;;;;;26.02;19.10;;;21.30;86.50;;;;;;5062641;28;20077;-75
2021/08/11 09:37:54;;;;;;;28.67;19.35;;;21.30;86.60;;;;;;5057000;28;20512;-76
2021/08/11 09:40:29;;;;;;;21.77;17.75;;;21.40;85.90;;;;;;5057294;28;20469;-76
2021/08/11 09:42:58;;;;;;;23.88;16.15;;;21.60;85.70;;;;;;5056953;28;20412;-76
2021/08/11 09:45:24;;;;;;;21.65;17.05;;;22.00;85.00;;;;;;5056845;28;20384;-76
2021/08/11 09:47:57;;;;;;;21.17;15.82;;;22.10;83.60;;;;;;5040109;28;20028;-76
2021/08/11 09:50:35;;;;;;;19.23;15.85;;;22.10;83.30;;;;;;5037022;28;20398;-76
2021/08/11 09:53:01;;;;;;;;;;;22.20;83.80;;;;;;5037215;28;20033;-77
2021/08/11 09:55:27;;;;;;;21.58;17.10;;;22.30;83.40;;;;;;5056488;28;19930;-76
2021/08/11 09:57:53;;;;;;;20.75;16.02;;;22.40;82.20;;;;;;5074881;28;20437;-76
2021/08/11 10:00:18;;;;;;;18.67;15.98;;;22.30;82.80;;;;;;5039869;28;20028;-76
2021/08/11 10:02:45;;;;;;;18.30;14.35;;;22.40;82.50;;;;;;5056456;28;20036;-76
2021/08/11 10:05:33;;;;;;;21.98;16.05;;;22.50;81.50;;;;;;5074254;28;20024;-76
2021/08/11 10:07:59;;;;;;;17.95;14.63;;;22.40;81.30;;;;;;5056059;28;20021;-76
2021/08/11 10:10:25;;;;;;;17.38;14.65;;;22.40;81.50;;;;;;5038793;28;20056;-75
2021/08/11 10:12:52;;;;;;;23.70;16.10;;;22.20;81.70;;;;;;5035125;28;20084;-75
2021/08/11 10:15:20;;;;;;;21.38;15.52;;;22.20;83.00;;;;;;5052626;28;20108;-75
2021/08/11 10:17:49;;;;;;;21.33;17.27;;;22.30;82.80;;;;;;5056472;28;20032;-76
2021/08/11 10:20:17;;;;;;;18.98;14.85;;;22.50;82.60;;;;;;5056108;28;20729;-75
2021/08/11 10:22:44;;;;;;;18.88;14.45;;;22.80;81.70;;;;;;5073132;28;20423;-76
2021/08/11 10:25:10;;;;;;;18.10;15.40;;;23.00;80.80;;;;;;5074208;28;20032;-75
2021/08/11 10:27:41;;;;;;;20.10;15.18;;;23.00;79.40;;;;;;5055959;28;20055;-75
2021/08/11 10:30:08;;;;;;;16.60;13.98;;;22.90;79.70;;;;;;5055868;28;20097;-75
2021/08/11 10:32:34;;;;;;;17.65;13.40;;;22.80;79.90;;;;;;5055962;28;20053;-76
2021/08/11 10:35:01;;;;;;;17.25;13.02;;;22.70;80.00;;;;;;5071667;28;20060;-76
2021/08/11 10:37:28;;;;;;;18.45;12.75;;;22.60;80.50;;;;;;5055996;28;20032;-75
2021/08/11 10:39:53;;;;;;;15.60;12.73;;;22.70;80.60;;;;;;5055914;28;20029;-75
2021/08/11 10:42:19;;;;;;;17.95;14.43;;;22.70;80.30;;;;;;5055323;28;20029;-75
2021/08/11 10:44:46;;;;;;;16.98;12.93;;;22.70;79.40;;;;;;5055148;28;20489;-76
2021/08/11 10:47:13;;;;;;;17.60;13.25;;;22.70;79.80;;;;;;5066978;28;20028;-75
2021/08/11 10:50:10;;;;;;;15.40;12.90;;;22.70;80.10;;;;;;5076355;28;20055;-76
2021/08/11 10:52:36;;;;;;;12.88;10.77;;;22.70;80.30;;;;;;5035008;28;20029;-76
2021/08/11 10:55:05;;;;;;;15.45;10.65;;;22.70;80.00;;;;;;5066084;28;20041;-76
2021/08/11 10:57:42;;;;;;;15.20;10.25;;;22.90;80.00;;;;;;5073176;28;20031;-75
2021/08/11 11:00:30;;;;;;;13.02;10.57;;;23.00;79.90;;;;;;5073010;28;20377;-76
2021/08/11 11:02:57;;;;;;;;;;;23.30;78.20;;;;;;5055019;28;20021;-75
2021/08/11 11:05:24;;;;;;;13.55;8.90;;;23.50;77.80;;;;;;5074441;28;19916;-74
2021/08/11 11:08:18;;;;;;;10.90;8.25;;;23.80;77.30;;;;;;5072298;28;20094;-75
2021/08/11 11:10:46;;;;;;;9.45;8.07;;;24.00;75.70;;;;;;5029387;28;20122;-76
2021/08/11 11:13:24;;;;;;;10.40;8.90;;;24.10;74.60;;;;;;5038474;28;20052;-76
2021/08/11 11:15:51;;;;;;;12.00;8.10;;;24.20;74.10;;;;;;5073076;28;20039;-77
2021/08/11 11:18:21;;;;;;;11.93;9.15;;;24.20;73.50;;;;;;5055154;28;20544;-76
2021/08/11 11:20:56;;;;;;;10.15;7.97;;;24.00;73.40;;;;;;5055842;28;20546;-77
2021/08/11 11:23:32;;;;;;;13.43;7.90;;;23.90;73.50;;;;;;5073342;28;20456;-76
2021/08/11 11:26:11;;;;;;;10.30;8.32;;;23.80;74.30;;;;;;5055307;28;20115;-77
2021/08/11 11:28:49;;;;;;;;;;;23.80;74.30;;;;;;5054907;28;20024;-77
2021/08/11 11:31:35;;;;;;;7.90;7.10;;;23.80;74.80;;;;;;5073104;28;19904;-77
2021/08/11 11:34:23;;;;;;;8.25;5.93;;;23.70;74.80;;;;;;5049375;28;20557;-76
2021/08/11 11:36:55;;;;;;;6.93;4.85;;;23.70;73.50;;;;;;5053232;28;20388;-76
2021/08/11 11:39:28;;;;;;;4.53;3.88;;;23.70;73.60;;;;;;5055078;28;20024;-77
2021/08/11 11:42:06;;;;;;;7.22;3.97;;;23.80;74.30;;;;;;5038478;28;20020;-76
2021/08/11 11:44:50;;;;;;;4.57;3.30;;;24.00;72.90;;;;;;5051668;28;20024;-76
2021/08/11 11:47:18;;;;;;;4.35;3.40;;;24.10;72.30;;;;;;5053695;28;20032;-76
2021/08/11 11:49:44;;;;;;;3.78;3.22;;;24.30;71.90;;;;;;5034877;28;20599;-76
2021/08/11 11:52:16;;;;;;;3.35;3.05;;;24.40;71.30;;;;;;5053913;28;20111;-76
2021/08/11 11:54:48;;;;;;;5.25;4.28;;;24.60;71.20;;;;;;5054323;28;20457;-76
2021/08/11 11:57:16;;;;;;;4.00;3.60;;;24.60;69.70;;;;;;5054261;28;20020;-76
2021/08/11 11:59:49;;;;;;;3.85;3.53;;;24.70;69.40;;;;;;5037454;28;20024;-77
2021/08/11 12:02:24;;;;;;;4.75;4.35;;;24.80;68.00;;;;;;5053804;28;20060;-77
2021/08/11 12:05:00;;;;;;;4.80;4.30;;;24.70;66.90;;;;;;5038216;28;20032;-76
2021/08/11 12:07:27;;;;;;;5.28;4.43;;;24.80;67.50;;;;;;5042110;28;20033;-76
2021/08/11 12:09:53;;;;;;;5.15;4.32;;;24.80;67.50;;;;;;5057861;28;20436;-75
2021/08/11 12:12:19;;;;;;;4.28;3.83;;;24.70;67.10;;;;;;5041725;28;20028;-77
2021/08/11 12:14:45;;;;;;;4.80;4.30;;;24.60;68.00;;;;;;5068844;28;20049;-78
2021/08/11 12:17:27;;;;;;;4.57;3.88;;;24.70;67.70;;;;;;5024580;28;20069;-78
2021/08/11 12:19:53;;;;;;;5.68;3.90;;;24.80;67.80;;;;;;5024907;28;20431;-78
2021/08/11 12:22:40;;;;;;;5.57;3.67;;;24.80;66.90;;;;;;5041204;28;20025;-78
2021/08/11 12:25:27;;;;;;;8.45;3.63;;;24.70;67.10;;;;;;5057779;28;20116;-78
2021/08/11 12:28:08;;;;;;;5.32;3.53;;;24.50;66.90;;;;;;5057653;28;20033;-78
2021/08/11 12:30:35;;;;;;;5.85;3.05;;;24.40;66.60;;;;;;5071211;28;20025;-78
2021/08/11 12:33:02;;;;;;;4.75;3.55;;;24.40;67.00;;;;;;5055747;28;20385;-78
2021/08/11 12:35:28;;;;;;;5.68;3.55;;;24.30;66.30;;;;;;5038141;28;20033;-78
2021/08/11 12:37:54;;;;;;;4.32;3.47;;;24.40;66.70;;;;;;5037952;28;20028;-77
2021/08/11 12:40:33;;;;;;;4.35;3.47;;;24.60;67.00;;;;;;5025546;28;20033;-78
2021/08/11 12:43:00;;;;;;;7.32;4.10;;;24.80;65.50;;;;;;5056394;28;20358;-78